sensor_id;sensor_type;location;lat;lon;timestamp;P1;durP1;ratioP1;P2;durP2;ratioP2
18194;SDS011;9223;50.988;3.162;2023-06-26T00:06:36;4.53;;;2.88;;
18194;SDS011;9223;50.988;3.162;2023-06-26T00:12:40;4.45;;;2.58;;
18194;SDS011;9223;50.988;3.162;2023-06-26T00:18:44;4.70;;;2.30;;
18194;SDS011;9223;50.988;3.162;2023-06-26T00:24:49;5.03;;;2.97;;
18194;SDS011;9223;50.988;3.162;2023-06-26T00:30:53;5.55;;;2.70;;
18194;SDS011;9223;50.988;3.162;2023-06-26T00:36:58;5.90;;;2.55;;
18194;SDS011;9223;50.988;3.162;2023-06-26T00:43:03;4.07;;;2.38;;
18194;SDS011;9223;50.988;3.162;2023-06-26T00:49:07;3.65;;;2.80;;
18194;SDS011;9223;50.988;3.162;2023-06-26T00:55:11;7.47;;;3.17;;
18194;SDS011;9223;50.988;3.162;2023-06-26T01:01:16;5.95;;;3.00;;
18194;SDS011;9223;50.988;3.162;2023-06-26T01:07:23;6.20;;;3.13;;
18194;SDS011;9223;50.988;3.162;2023-06-26T01:13:27;7.93;;;3.03;;
18194;SDS011;9223;50.988;3.162;2023-06-26T01:19:33;6.45;;;3.40;;
18194;SDS011;9223;50.988;3.162;2023-06-26T01:25:37;6.32;;;3.05;;
18194;SDS011;9223;50.988;3.162;2023-06-26T01:31:46;6.28;;;3.40;;
18194;SDS011;9223;50.988;3.162;2023-06-26T01:37:51;6.10;;;2.70;;
18194;SDS011;9223;50.988;3.162;2023-06-26T01:44:01;8.10;;;3.47;;
18194;SDS011;9223;50.988;3.162;2023-06-26T01:50:09;8.38;;;3.45;;
18194;SDS011;9223;50.988;3.162;2023-06-26T01:56:14;9.00;;;3.58;;
18194;SDS011;9223;50.988;3.162;2023-06-26T02:02:20;10.07;;;3.80;;
18194;SDS011;9223;50.988;3.162;2023-06-26T02:08:27;9.07;;;3.38;;
18194;SDS011;9223;50.988;3.162;2023-06-26T02:14:32;6.32;;;2.83;;
18194;SDS011;9223;50.988;3.162;2023-06-26T02:20:36;9.45;;;3.25;;
18194;SDS011;9223;50.988;3.162;2023-06-26T02:26:45;9.88;;;3.38;;
18194;SDS011;9223;50.988;3.162;2023-06-26T02:32:50;6.40;;;2.60;;
18194;SDS011;9223;50.988;3.162;2023-06-26T02:38:54;6.40;;;3.08;;
18194;SDS011;9223;50.988;3.162;2023-06-26T02:45:00;6.15;;;2.60;;
18194;SDS011;9223;50.988;3.162;2023-06-26T02:51:04;9.15;;;2.67;;
18194;SDS011;9223;50.988;3.162;2023-06-26T02:57:07;5.53;;;2.15;;
18194;SDS011;9223;50.988;3.162;2023-06-26T03:03:13;6.72;;;2.25;;
18194;SDS011;9223;50.988;3.162;2023-06-26T03:09:18;5.95;;;2.10;;
18194;SDS011;9223;50.988;3.162;2023-06-26T03:15:23;6.80;;;2.22;;
18194;SDS011;9223;50.988;3.162;2023-06-26T03:21:28;8.05;;;2.60;;
18194;SDS011;9223;50.988;3.162;2023-06-26T03:27:32;6.60;;;2.38;;
18194;SDS011;9223;50.988;3.162;2023-06-26T03:33:36;6.22;;;2.47;;
18194;SDS011;9223;50.988;3.162;2023-06-26T03:39:42;6.35;;;2.30;;
18194;SDS011;9223;50.988;3.162;2023-06-26T03:45:48;5.22;;;2.15;;
18194;SDS011;9223;50.988;3.162;2023-06-26T03:51:52;3.53;;;1.88;;
18194;SDS011;9223;50.988;3.162;2023-06-26T03:57:57;3.88;;;1.90;;
18194;SDS011;9223;50.988;3.162;2023-06-26T04:04:01;4.45;;;1.67;;
18194;SDS011;9223;50.988;3.162;2023-06-26T04:10:05;4.15;;;1.70;;
18194;SDS011;9223;50.988;3.162;2023-06-26T04:16:11;4.72;;;1.70;;
18194;SDS011;9223;50.988;3.162;2023-06-26T04:22:15;3.33;;;1.15;;
18194;SDS011;9223;50.988;3.162;2023-06-26T04:28:20;3.20;;;1.60;;
18194;SDS011;9223;50.988;3.162;2023-06-26T04:34:25;3.53;;;1.42;;
18194;SDS011;9223;50.988;3.162;2023-06-26T04:40:29;2.33;;;1.40;;
18194;SDS011;9223;50.988;3.162;2023-06-26T04:46:33;2.95;;;1.30;;
18194;SDS011;9223;50.988;3.162;2023-06-26T04:52:38;3.45;;;1.40;;
18194;SDS011;9223;50.988;3.162;2023-06-26T04:58:41;3.67;;;1.45;;
18194;SDS011;9223;50.988;3.162;2023-06-26T05:04:45;2.78;;;1.33;;
18194;SDS011;9223;50.988;3.162;2023-06-26T05:10:51;3.67;;;1.50;;
18194;SDS011;9223;50.988;3.162;2023-06-26T05:16:59;2.58;;;1.13;;
18194;SDS011;9223;50.988;3.162;2023-06-26T05:23:03;2.83;;;1.00;;
18194;SDS011;9223;50.988;3.162;2023-06-26T05:29:08;2.55;;;1.70;;
18194;SDS011;9223;50.988;3.162;2023-06-26T05:35:12;1.92;;;1.20;;
18194;SDS011;9223;50.988;3.162;2023-06-26T05:41:16;2.10;;;1.10;;
18194;SDS011;9223;50.988;3.162;2023-06-26T05:47:21;3.22;;;1.27;;
18194;SDS011;9223;50.988;3.162;2023-06-26T05:53:25;4.95;;;1.20;;
18194;SDS011;9223;50.988;3.162;2023-06-26T05:59:29;3.38;;;1.30;;
18194;SDS011;9223;50.988;3.162;2023-06-26T06:05:35;3.25;;;1.50;;
18194;SDS011;9223;50.988;3.162;2023-06-26T06:11:39;3.00;;;1.30;;
18194;SDS011;9223;50.988;3.162;2023-06-26T06:17:42;3.53;;;1.55;;
18194;SDS011;9223;50.988;3.162;2023-06-26T06:23:47;2.67;;;1.40;;
18194;SDS011;9223;50.988;3.162;2023-06-26T06:29:52;4.03;;;1.35;;
18194;SDS011;9223;50.988;3.162;2023-06-26T06:35:55;3.42;;;1.50;;
18194;SDS011;9223;50.988;3.162;2023-06-26T06:42:01;3.13;;;1.50;;
18194;SDS011;9223;50.988;3.162;2023-06-26T06:48:05;3.72;;;1.40;;
18194;SDS011;9223;50.988;3.162;2023-06-26T06:54:09;2.47;;;1.58;;
18194;SDS011;9223;50.988;3.162;2023-06-26T07:00:14;3.22;;;1.42;;
18194;SDS011;9223;50.988;3.162;2023-06-26T07:06:18;4.88;;;1.45;;
18194;SDS011;9223;50.988;3.162;2023-06-26T07:12:22;2.03;;;1.10;;
18194;SDS011;9223;50.988;3.162;2023-06-26T07:18:28;1.52;;;1.42;;
18194;SDS011;9223;50.988;3.162;2023-06-26T07:24:32;5.78;;;1.42;;
18194;SDS011;9223;50.988;3.162;2023-06-26T07:30:36;3.08;;;1.75;;
18194;SDS011;9223;50.988;3.162;2023-06-26T07:36:43;2.58;;;1.60;;
18194;SDS011;9223;50.988;3.162;2023-06-26T07:42:46;3.40;;;1.50;;
18194;SDS011;9223;50.988;3.162;2023-06-26T07:48:50;2.28;;;1.50;;
18194;SDS011;9223;50.988;3.162;2023-06-26T07:54:55;2.70;;;1.60;;
18194;SDS011;9223;50.988;3.162;2023-06-26T08:00:59;6.30;;;1.65;;
18194;SDS011;9223;50.988;3.162;2023-06-26T08:07:02;3.83;;;1.40;;
18194;SDS011;9223;50.988;3.162;2023-06-26T08:13:08;3.33;;;1.45;;
18194;SDS011;9223;50.988;3.162;2023-06-26T08:19:11;3.05;;;1.20;;
18194;SDS011;9223;50.988;3.162;2023-06-26T08:25:15;1.92;;;1.20;;
18194;SDS011;9223;50.988;3.162;2023-06-26T08:31:20;2.88;;;1.20;;
18194;SDS011;9223;50.988;3.162;2023-06-26T08:37:24;1.80;;;1.13;;
18194;SDS011;9223;50.988;3.162;2023-06-26T08:43:28;2.55;;;1.27;;
18194;SDS011;9223;50.988;3.162;2023-06-26T08:49:37;2.28;;;1.30;;
18194;SDS011;9223;50.988;3.162;2023-06-26T08:55:45;3.78;;;1.55;;
18194;SDS011;9223;50.988;3.162;2023-06-26T09:01:49;3.65;;;1.83;;
18194;SDS011;9223;50.988;3.162;2023-06-26T09:07:54;3.75;;;2.20;;
18194;SDS011;9223;50.988;3.162;2023-06-26T09:13:59;4.63;;;1.52;;
18194;SDS011;9223;50.988;3.162;2023-06-26T09:20:06;3.40;;;1.67;;
18194;SDS011;9223;50.988;3.162;2023-06-26T09:26:13;3.45;;;1.80;;
18194;SDS011;9223;50.988;3.162;2023-06-26T09:32:18;6.00;;;1.75;;
18194;SDS011;9223;50.988;3.162;2023-06-26T09:38:22;4.10;;;1.88;;
18194;SDS011;9223;50.988;3.162;2023-06-26T09:44:27;4.35;;;1.80;;
18194;SDS011;9223;50.988;3.162;2023-06-26T09:50:32;3.67;;;1.55;;
18194;SDS011;9223;50.988;3.162;2023-06-26T09:56:39;4.82;;;1.83;;
18194;SDS011;9223;50.988;3.162;2023-06-26T10:02:44;3.63;;;1.70;;
18194;SDS011;9223;50.988;3.162;2023-06-26T10:08:48;6.03;;;1.85;;
18194;SDS011;9223;50.988;3.162;2023-06-26T10:14:52;2.70;;;1.42;;
18194;SDS011;9223;50.988;3.162;2023-06-26T10:20:58;5.60;;;2.00;;
18194;SDS011;9223;50.988;3.162;2023-06-26T10:27:04;4.38;;;1.60;;
18194;SDS011;9223;50.988;3.162;2023-06-26T10:33:10;2.58;;;1.60;;
18194;SDS011;9223;50.988;3.162;2023-06-26T10:39:16;4.07;;;1.77;;
18194;SDS011;9223;50.988;3.162;2023-06-26T10:45:20;2.50;;;1.60;;
18194;SDS011;9223;50.988;3.162;2023-06-26T10:51:24;2.25;;;1.40;;
18194;SDS011;9223;50.988;3.162;2023-06-26T10:57:30;3.00;;;1.67;;
18194;SDS011;9223;50.988;3.162;2023-06-26T11:03:33;3.90;;;1.35;;
18194;SDS011;9223;50.988;3.162;2023-06-26T11:09:53;1.60;;;1.50;;
18194;SDS011;9223;50.988;3.162;2023-06-26T11:15:58;3.15;;;1.50;;
18194;SDS011;9223;50.988;3.162;2023-06-26T11:22:02;1.83;;;1.30;;
18194;SDS011;9223;50.988;3.162;2023-06-26T11:28:09;4.13;;;1.40;;
18194;SDS011;9223;50.988;3.162;2023-06-26T11:34:15;4.30;;;1.25;;
18194;SDS011;9223;50.988;3.162;2023-06-26T11:40:19;2.75;;;1.73;;
18194;SDS011;9223;50.988;3.162;2023-06-26T11:46:23;2.50;;;1.45;;
18194;SDS011;9223;50.988;3.162;2023-06-26T11:52:28;3.22;;;1.45;;
18194;SDS011;9223;50.988;3.162;2023-06-26T11:58:32;2.83;;;1.35;;
18194;SDS011;9223;50.988;3.162;2023-06-26T12:04:36;2.17;;;1.52;;
18194;SDS011;9223;50.988;3.162;2023-06-26T12:10:42;3.70;;;1.30;;
18194;SDS011;9223;50.988;3.162;2023-06-26T12:16:46;4.10;;;1.10;;
18194;SDS011;9223;50.988;3.162;2023-06-26T12:22:51;3.30;;;1.58;;
18194;SDS011;9223;50.988;3.162;2023-06-26T12:29:02;4.20;;;1.60;;
18194;SDS011;9223;50.988;3.162;2023-06-26T12:35:07;2.65;;;1.50;;
18194;SDS011;9223;50.988;3.162;2023-06-26T12:41:12;3.40;;;1.58;;
18194;SDS011;9223;50.988;3.162;2023-06-26T12:47:19;1.80;;;1.20;;
18194;SDS011;9223;50.988;3.162;2023-06-26T12:53:24;2.95;;;1.20;;
18194;SDS011;9223;50.988;3.162;2023-06-26T12:59:28;1.52;;;1.10;;
18194;SDS011;9223;50.988;3.162;2023-06-26T13:05:33;1.83;;;0.90;;
18194;SDS011;9223;50.988;3.162;2023-06-26T13:11:37;3.35;;;0.98;;
18194;SDS011;9223;50.988;3.162;2023-06-26T13:17:41;1.45;;;0.88;;
18194;SDS011;9223;50.988;3.162;2023-06-26T13:23:46;1.45;;;1.00;;
18194;SDS011;9223;50.988;3.162;2023-06-26T13:29:50;0.80;;;0.75;;
18194;SDS011;9223;50.988;3.162;2023-06-26T13:35:54;1.40;;;1.05;;
18194;SDS011;9223;50.988;3.162;2023-06-26T13:41:59;2.08;;;0.90;;
18194;SDS011;9223;50.988;3.162;2023-06-26T13:48:03;6.15;;;1.00;;
18194;SDS011;9223;50.988;3.162;2023-06-26T13:54:07;2.25;;;0.80;;
18194;SDS011;9223;50.988;3.162;2023-06-26T14:00:16;0.85;;;0.80;;
18194;SDS011;9223;50.988;3.162;2023-06-26T14:06:23;1.98;;;0.82;;
18194;SDS011;9223;50.988;3.162;2023-06-26T14:12:28;6.32;;;1.20;;
18194;SDS011;9223;50.988;3.162;2023-06-26T14:18:36;2.88;;;0.85;;
18194;SDS011;9223;50.988;3.162;2023-06-26T14:24:44;3.42;;;0.98;;
18194;SDS011;9223;50.988;3.162;2023-06-26T14:30:54;3.20;;;1.20;;
18194;SDS011;9223;50.988;3.162;2023-06-26T14:37:00;2.85;;;1.08;;
18194;SDS011;9223;50.988;3.162;2023-06-26T14:43:04;2.10;;;1.25;;
18194;SDS011;9223;50.988;3.162;2023-06-26T14:49:08;5.22;;;1.70;;
18194;SDS011;9223;50.988;3.162;2023-06-26T14:55:14;5.60;;;1.80;;
18194;SDS011;9223;50.988;3.162;2023-06-26T15:01:20;4.38;;;1.35;;
18194;SDS011;9223;50.988;3.162;2023-06-26T15:07:24;4.68;;;1.60;;
18194;SDS011;9223;50.988;3.162;2023-06-26T15:13:29;3.20;;;1.10;;
18194;SDS011;9223;50.988;3.162;2023-06-26T15:19:34;5.30;;;1.98;;
18194;SDS011;9223;50.988;3.162;2023-06-26T15:25:38;2.92;;;1.27;;
18194;SDS011;9223;50.988;3.162;2023-06-26T15:31:43;3.35;;;1.50;;
18194;SDS011;9223;50.988;3.162;2023-06-26T15:37:47;2.53;;;1.23;;
18194;SDS011;9223;50.988;3.162;2023-06-26T15:43:51;4.70;;;1.50;;
18194;SDS011;9223;50.988;3.162;2023-06-26T15:49:57;2.55;;;1.30;;
18194;SDS011;9223;50.988;3.162;2023-06-26T15:56:01;3.08;;;1.20;;
18194;SDS011;9223;50.988;3.162;2023-06-26T16:02:05;1.75;;;1.35;;
18194;SDS011;9223;50.988;3.162;2023-06-26T16:08:13;4.38;;;1.50;;
18194;SDS011;9223;50.988;3.162;2023-06-26T16:14:17;2.65;;;1.50;;
18194;SDS011;9223;50.988;3.162;2023-06-26T16:20:21;2.03;;;1.10;;
18194;SDS011;9223;50.988;3.162;2023-06-26T16:26:27;2.72;;;1.17;;
18194;SDS011;9223;50.988;3.162;2023-06-26T16:32:31;3.47;;;1.50;;
18194;SDS011;9223;50.988;3.162;2023-06-26T16:38:35;3.53;;;1.52;;
18194;SDS011;9223;50.988;3.162;2023-06-26T16:44:44;2.40;;;1.20;;
18194;SDS011;9223;50.988;3.162;2023-06-26T16:50:48;4.53;;;1.58;;
18194;SDS011;9223;50.988;3.162;2023-06-26T16:56:54;7.07;;;1.60;;
18194;SDS011;9223;50.988;3.162;2023-06-26T17:03:02;4.78;;;1.40;;
18194;SDS011;9223;50.988;3.162;2023-06-26T17:09:07;3.30;;;1.60;;
18194;SDS011;9223;50.988;3.162;2023-06-26T17:15:11;7.70;;;1.70;;
18194;SDS011;9223;50.988;3.162;2023-06-26T17:21:16;3.80;;;1.42;;
18194;SDS011;9223;50.988;3.162;2023-06-26T17:27:20;3.67;;;1.73;;
18194;SDS011;9223;50.988;3.162;2023-06-26T17:33:30;4.68;;;1.42;;
18194;SDS011;9223;50.988;3.162;2023-06-26T17:39:36;4.05;;;1.50;;
18194;SDS011;9223;50.988;3.162;2023-06-26T17:45:40;1.75;;;1.02;;
18194;SDS011;9223;50.988;3.162;2023-06-26T17:51:44;4.10;;;1.40;;
18194;SDS011;9223;50.988;3.162;2023-06-26T17:57:49;3.95;;;1.83;;
18194;SDS011;9223;50.988;3.162;2023-06-26T18:03:53;3.22;;;1.73;;
18194;SDS011;9223;50.988;3.162;2023-06-26T18:09:57;3.13;;;1.27;;
18194;SDS011;9223;50.988;3.162;2023-06-26T18:16:03;2.75;;;1.33;;
18194;SDS011;9223;50.988;3.162;2023-06-26T18:22:10;6.38;;;2.13;;
18194;SDS011;9223;50.988;3.162;2023-06-26T18:28:14;4.68;;;1.67;;
18194;SDS011;9223;50.988;3.162;2023-06-26T18:34:19;3.42;;;1.92;;
18194;SDS011;9223;50.988;3.162;2023-06-26T18:40:23;1.85;;;1.30;;
18194;SDS011;9223;50.988;3.162;2023-06-26T18:46:27;4.97;;;1.70;;
18194;SDS011;9223;50.988;3.162;2023-06-26T18:52:33;5.18;;;1.70;;
18194;SDS011;9223;50.988;3.162;2023-06-26T18:58:37;4.13;;;1.77;;
18194;SDS011;9223;50.988;3.162;2023-06-26T19:04:41;4.78;;;1.60;;
18194;SDS011;9223;50.988;3.162;2023-06-26T19:10:47;7.05;;;1.98;;
18194;SDS011;9223;50.988;3.162;2023-06-26T19:16:51;3.42;;;1.40;;
18194;SDS011;9223;50.988;3.162;2023-06-26T19:22:55;4.30;;;1.58;;
18194;SDS011;9223;50.988;3.162;2023-06-26T19:29:01;5.13;;;1.80;;
18194;SDS011;9223;50.988;3.162;2023-06-26T19:35:06;4.63;;;1.80;;
18194;SDS011;9223;50.988;3.162;2023-06-26T19:41:10;4.93;;;1.40;;
18194;SDS011;9223;50.988;3.162;2023-06-26T19:47:16;3.50;;;1.52;;
18194;SDS011;9223;50.988;3.162;2023-06-26T19:53:20;5.72;;;1.50;;
18194;SDS011;9223;50.988;3.162;2023-06-26T19:59:24;5.90;;;1.48;;
18194;SDS011;9223;50.988;3.162;2023-06-26T20:05:30;4.05;;;1.60;;
18194;SDS011;9223;50.988;3.162;2023-06-26T20:11:34;4.03;;;1.40;;
18194;SDS011;9223;50.988;3.162;2023-06-26T20:17:39;6.15;;;1.60;;
18194;SDS011;9223;50.988;3.162;2023-06-26T20:23:45;4.00;;;1.45;;
18194;SDS011;9223;50.988;3.162;2023-06-26T20:29:49;4.75;;;1.70;;
18194;SDS011;9223;50.988;3.162;2023-06-26T20:35:53;3.90;;;1.30;;
18194;SDS011;9223;50.988;3.162;2023-06-26T20:41:59;4.10;;;1.63;;
18194;SDS011;9223;50.988;3.162;2023-06-26T20:48:07;4.10;;;1.70;;
18194;SDS011;9223;50.988;3.162;2023-06-26T20:54:15;6.03;;;1.85;;
18194;SDS011;9223;50.988;3.162;2023-06-26T21:00:20;4.30;;;1.40;;
18194;SDS011;9223;50.988;3.162;2023-06-26T21:06:25;4.40;;;1.35;;
18194;SDS011;9223;50.988;3.162;2023-06-26T21:12:30;5.45;;;1.58;;
18194;SDS011;9223;50.988;3.162;2023-06-26T21:18:36;4.32;;;1.75;;
18194;SDS011;9223;50.988;3.162;2023-06-26T21:24:39;4.88;;;1.77;;
18194;SDS011;9223;50.988;3.162;2023-06-26T21:30:43;5.03;;;1.75;;
18194;SDS011;9223;50.988;3.162;2023-06-26T21:36:49;5.97;;;1.70;;
18194;SDS011;9223;50.988;3.162;2023-06-26T21:43:02;5.00;;;1.70;;
18194;SDS011;9223;50.988;3.162;2023-06-26T21:49:06;5.10;;;1.60;;
18194;SDS011;9223;50.988;3.162;2023-06-26T21:55:12;6.00;;;1.85;;
18194;SDS011;9223;50.988;3.162;2023-06-26T22:01:15;7.43;;;1.90;;
18194;SDS011;9223;50.988;3.162;2023-06-26T22:07:19;4.70;;;2.00;;
18194;SDS011;9223;50.988;3.162;2023-06-26T22:13:24;5.43;;;2.08;;
18194;SDS011;9223;50.988;3.162;2023-06-26T22:19:28;6.93;;;1.95;;
18194;SDS011;9223;50.988;3.162;2023-06-26T22:25:31;6.40;;;2.20;;
18194;SDS011;9223;50.988;3.162;2023-06-26T22:31:38;3.88;;;1.50;;
18194;SDS011;9223;50.988;3.162;2023-06-26T22:37:41;4.53;;;1.60;;
18194;SDS011;9223;50.988;3.162;2023-06-26T22:43:45;4.07;;;1.65;;
18194;SDS011;9223;50.988;3.162;2023-06-26T22:49:50;4.05;;;1.80;;
18194;SDS011;9223;50.988;3.162;2023-06-26T22:55:54;9.07;;;2.17;;
18194;SDS011;9223;50.988;3.162;2023-06-26T23:01:57;7.32;;;2.45;;
18194;SDS011;9223;50.988;3.162;2023-06-26T23:08:03;9.00;;;2.20;;
18194;SDS011;9223;50.988;3.162;2023-06-26T23:14:07;8.55;;;2.65;;
18194;SDS011;9223;50.988;3.162;2023-06-26T23:20:11;6.88;;;2.28;;
18194;SDS011;9223;50.988;3.162;2023-06-26T23:26:16;6.32;;;2.35;;
18194;SDS011;9223;50.988;3.162;2023-06-26T23:32:20;9.00;;;1.98;;
18194;SDS011;9223;50.988;3.162;2023-06-26T23:38:24;4.53;;;2.08;;
18194;SDS011;9223;50.988;3.162;2023-06-26T23:44:29;10.60;;;2.45;;
18194;SDS011;9223;50.988;3.162;2023-06-26T23:50:36;6.82;;;2.08;;
18194;SDS011;9223;50.988;3.162;2023-06-26T23:56:40;9.80;;;2.55;;
